地図

経路データ

SID SEASON NUMBER BASIN SUBBASIN NAME ISO_TIME NATURE LAT LON WMO_WIND WMO_PRES WMO_AGENCY TRACK_TYPE DIST2LAND LANDFALL IFLAG USA_AGENCY USA_ATCF_ID USA_LAT USA_LON USA_RECORD USA_STATUS USA_WIND USA_PRES USA_SSHS USA_R34_NE USA_R34_SE USA_R34_SW USA_R34_NW USA_R50_NE USA_R50_SE USA_R50_SW USA_R50_NW USA_R64_NE USA_R64_SE USA_R64_SW USA_R64_NW USA_POCI USA_ROCI USA_RMW USA_EYE TOKYO_LAT TOKYO_LON TOKYO_GRADE TOKYO_WIND TOKYO_PRES TOKYO_R50_DIR TOKYO_R50_LONG TOKYO_R50_SHORT TOKYO_R30_DIR TOKYO_R30_LONG TOKYO_R30_SHORT TOKYO_LAND CMA_LAT CMA_LON CMA_CAT CMA_WIND CMA_PRES HKO_LAT HKO_LON HKO_CAT HKO_WIND HKO_PRES NEWDELHI_LAT NEWDELHI_LON NEWDELHI_GRADE NEWDELHI_WIND NEWDELHI_PRES NEWDELHI_CI NEWDELHI_DP NEWDELHI_POCI REUNION_LAT REUNION_LON REUNION_TYPE REUNION_WIND REUNION_PRES REUNION_TNUM REUNION_CI REUNION_RMW REUNION_R34_NE REUNION_R34_SE REUNION_R34_SW REUNION_R34_NW REUNION_R50_NE REUNION_R50_SE REUNION_R50_SW REUNION_R50_NW REUNION_R64_NE REUNION_R64_SE REUNION_R64_SW REUNION_R64_NW BOM_LAT BOM_LON BOM_TYPE BOM_WIND BOM_PRES BOM_TNUM BOM_CI BOM_RMW BOM_R34_NE BOM_R34_SE BOM_R34_SW BOM_R34_NW BOM_R50_NE BOM_R50_SE BOM_R50_SW BOM_R50_NW BOM_R64_NE BOM_R64_SE BOM_R64_SW BOM_R64_NW BOM_ROCI BOM_POCI BOM_EYE BOM_POS_METHOD BOM_PRES_METHOD NADI_LAT NADI_LON NADI_CAT NADI_WIND NADI_PRES WELLINGTON_LAT WELLINGTON_LON WELLINGTON_WIND WELLINGTON_PRES DS824_LAT DS824_LON DS824_STAGE DS824_WIND DS824_PRES TD9636_LAT TD9636_LON TD9636_STAGE TD9636_WIND TD9636_PRES TD9635_LAT TD9635_LON TD9635_WIND TD9635_PRES TD9635_ROCI NEUMANN_LAT NEUMANN_LON NEUMANN_CLASS NEUMANN_WIND NEUMANN_PRES MLC_LAT MLC_LON MLC_CLASS MLC_WIND MLC_PRES USA_GUST BOM_GUST BOM_GUST_PER REUNION_GUST REUNION_GUST_PER USA_SEAHGT USA_SEARAD_NE USA_SEARAD_SE USA_SEARAD_SW USA_SEARAD_NW STORM_SPEED STORM_DIR
1991124N05152 1991 22 WP MM WALT 1991-05-04 00:00:00 NR 4.60000 151.900 main 825 825 O_____________ jtwc_wp WP041991 4.60000 151.900 15 -1 4 33
1991124N05152 1991 22 WP MM WALT 1991-05-04 03:00:00 NR 4.78501 152.017 main 849 849 P_____________ WP041991 4.78501 152.017 15 -1 5 26
1991124N05152 1991 22 WP MM WALT 1991-05-04 06:00:00 NR 5.00000 152.100 main 873 873 O_____________ jtwc_wp WP041991 5.00000 152.100 15 -1 5 13
1991124N05152 1991 22 WP MM WALT 1991-05-04 09:00:00 NR 5.25750 152.123 main 906 906 P_____________ WP041991 5.25750 152.123 15 -1 5 2
1991124N05152 1991 22 WP MM WALT 1991-05-04 12:00:00 NR 5.50000 152.100 main 928 928 O_____________ jtwc_wp WP041991 5.50000 152.100 15 -1 4 351
1991124N05152 1991 22 WP MM WALT 1991-05-04 15:00:00 NR 5.67250 152.058 main 950 949 P_____________ WP041991 5.67250 152.058 17 -1 3 343
1991124N05152 1991 22 WP MM WALT 1991-05-04 18:00:00 NR 5.80000 152.000 main 960 960 O_____________ jtwc_wp WP041991 5.80000 152.000 20 -1 3 336
1991124N05152 1991 22 WP MM WALT 1991-05-04 21:00:00 NR 5.90750 151.950 main 971 970 P_____________ WP041991 5.90750 151.950 20 -1 2 333
1991124N05152 1991 22 WP MM WALT 1991-05-05 00:00:00 NR 6.00000 151.900 main 981 981 O_____________ jtwc_wp WP041991 6.00000 151.900 20 -1 2 335
1991124N05152 1991 22 WP MM WALT 1991-05-05 03:00:00 NR 6.09999 151.865 main 992 991 P_____________ WP041991 6.09999 151.865 20 -1 2 333
1991124N05152 1991 22 WP MM WALT 1991-05-05 06:00:00 NR 6.20000 151.800 main 1002 1001 O_____________ jtwc_wp WP041991 6.20000 151.800 20 -1 3 313
1991124N05152 1991 22 WP MM WALT 1991-05-05 09:00:00 NR 6.29251 151.658 main 1012 1011 P_____________ WP041991 6.29251 151.658 20 -1 4 304
1991124N05152 1991 22 WP MM WALT 1991-05-05 12:00:00 NR 6.40000 151.500 main 1021 1021 O_____________ jtwc_wp WP041991 6.40000 151.500 20 -1 4 313
1991124N05152 1991 22 WP MM WALT 1991-05-05 15:00:00 NR 6.53499 151.400 main 1032 1032 P_____________ WP041991 6.53499 151.400 22 -1 4 327
1991124N05152 1991 22 WP MM WALT 1991-05-05 18:00:00 NR 6.70000 151.300 main 1054 1054 O_____________ jtwc_wp WP041991 6.70000 151.300 25 -1 5 325
1991124N05152 1991 22 WP MM WALT 1991-05-05 21:00:00 NR 6.90751 151.143 main 1076 1065 P_____________ WP041991 6.90751 151.143 25 -1 1 340
1991124N05152 1991 22 WP MM WALT 1991-05-06 00:00:00 TS 6.82857 151.257 1004 tokyo main 1065 1065 OOOO__________ jtwc_wp WP041991 7.10000 151.000 25 -1 6.50000 151.500 2 1004 0 0 0 6.50000 151.500 1 29 1002 6.40000 151.800 TD 30 1000 1 135
1991124N05152 1991 22 WP MM WALT 1991-05-06 03:00:00 TS 6.81901 151.228 main 1065 1065 PPPP__________ WP041991 7.20749 150.942 25 -1 6.59500 151.413 2 1003 0 0 6.52506 151.193 1 29 1002 6.56001 151.650 TD 30 1000 1 275
1991124N05152 1991 22 WP MM WALT 1991-05-06 06:00:00 TS 6.83846 151.154 1002 tokyo main 1065 1064 OOOO__________ jtwc_wp WP041991 7.30000 150.900 25 -1 6.70000 151.300 2 1002 0 0 0 6.50000 151.000 1 29 1002 6.70000 151.500 TD 30 1000 2 290
1991124N05152 1991 22 WP MM WALT 1991-05-06 09:00:00 TS 6.87562 151.075 main 1076 1075 PPPP__________ WP041991 7.44250 150.815 27 -1 6.82751 151.150 2 1002 0 0 6.42498 150.985 1 29 1001 6.80750 151.350 TD 30 1000 2 312
1991124N05152 1991 22 WP MM WALT 1991-05-06 12:00:00 TS 7.00000 150.975 1002 tokyo main 1087 1086 OOOO__________ jtwc_wp WP041991 7.60000 150.700 30 -1 7.00000 151.000 2 1002 0 0 0 6.50000 151.000 1 29 1000 6.90000 151.200 TD 30 1000 4 327
1991124N05152 1991 22 WP MM WALT 1991-05-06 15:00:00 TS 7.23500 150.845 main 1108 1108 PPPP__________ WP041991 7.75000 150.557 30 -1 7.23499 150.900 2 1002 0 0 6.96252 150.865 1 29 999 6.99249 151.057 TD 32 997 6 331
1991124N05152 1991 22 WP MM WALT 1991-05-06 18:00:00 TS 7.50000 150.700 1002 tokyo main 1136 1136 OOOO__________ jtwc_wp WP041991 7.90000 150.400 30 -1 7.50000 150.800 2 1002 0 0 0 7.50000 150.700 1 29 998 7.10000 150.900 TS 35 995 6 330
1991124N05152 1991 22 WP MM WALT 1991-05-06 21:00:00 TS 7.70935 150.565 main 1154 1150 PPPP__________ WP041991 8.04999 150.257 32 -1 7.75750 150.658 2 1001 0 0 7.79493 150.630 1 33 996 7.23499 150.715 TS 35 995 5 324
1991124N05152 1991 22 WP MM WALT 1991-05-07 00:00:00 TS 7.90000 150.400 35 1000 tokyo main 1169 1169 OOOO__________ jtwc_wp WP041991 8.20000 150.100 35 0 8.00000 150.500 3 35 1000 0 9 60 60 0 8.00000 150.500 2 38 995 7.40000 150.500 TS 35 995 5 315
1991124N05152 1991 22 WP MM WALT 1991-05-07 03:00:00 TS 8.09501 150.176 main 1184 1181 PPPP__________ WP041991 8.35000 149.908 35 0 8.21497 150.365 3 35 999 0 9 65 65 8.21508 150.173 2 38 995 7.60000 150.258 TS 35 995 6 309
1991124N05152 1991 22 WP MM WALT 1991-05-07 06:00:00 TS 8.27500 149.925 35 998 tokyo main 1197 1195 OOOO__________ jtwc_wp WP041991 8.50000 149.700 35 0 8.40000 150.200 3 35 998 0 9 70 70 0 8.40000 149.800 2 38 995 7.80000 150.000 TS 35 995 6 305
1991124N05152 1991 22 WP MM WALT 1991-05-07 09:00:00 TS 8.43436 149.687 main 1203 1203 PPPP__________ WP041991 8.64998 149.507 35 0 8.56501 149.965 3 35 997 0 9 70 70 8.57245 149.535 2 38 995 7.95000 149.742 TS 37 992 6 303
1991124N05152 1991 22 WP MM WALT 1991-05-07 12:00:00 TS 8.57500 149.450 35 996 tokyo main 1221 1217 OOOO__________ jtwc_wp WP041991 8.80000 149.300 35 0 8.70000 149.700 3 35 996 0 9 70 70 0 8.70000 149.300 2 38 995 8.10000 149.500 TS 40 990 5 300
1991124N05152 1991 22 WP MM WALT 1991-05-07 15:00:00 TS 8.70373 149.214 main 1226 1224 PPPP__________ WP041991 8.95750 149.058 37 0 8.80747 149.457 3 35 995 0 9 75 75 8.75751 149.035 2 38 995 8.29245 149.307 TS 42 987 5 298
1991124N05152 1991 22 WP MM WALT 1991-05-07 18:00:00 TS 8.82500 148.975 35 994 tokyo main 1234 1232 OOOO__________ jtwc_wp WP041991 9.10000 148.800 40 0 8.90000 149.200 3 35 994 0 9 80 80 0 8.80000 148.800 2 38 995 8.50000 149.100 TS 45 985 5 297
1991124N05152 1991 22 WP MM WALT 1991-05-07 21:00:00 TS 8.94434 148.740 main 1241 1241 PPPP__________ WP041991 9.19997 148.557 42 0 8.99245 148.922 3 40 992 0 9 100 100 8.88492 148.665 2 38 992 8.70001 148.815 TS 47 982 6 297
1991124N05152 1991 22 WP MM WALT 1991-05-08 00:00:00 TS 9.07500 148.475 45 990 tokyo main 1260 1258 OOOO__________ jtwc_wp WP041991 9.30000 148.300 45 0 9.10000 148.600 3 45 990 0 9 120 120 0 9.00000 148.500 2 38 990 8.90000 148.500 STS 50 980 7 296
1991124N05152 1991 22 WP MM WALT 1991-05-08 03:00:00 TS 9.23377 148.143 main 1268 1268 PPPP__________ WP041991 9.44249 148.008 47 0 9.24255 148.200 3 47 987 0 9 120 120 9.15007 148.165 2 43 987 9.09998 148.200 STS 50 980 7 296
1991124N05152 1991 22 WP MM WALT 1991-05-08 06:00:00 TS 9.40000 147.800 50 985 tokyo main 1289 1289 OOOO__________ jtwc_wp WP041991 9.60000 147.700 50 0 9.40000 147.800 4 50 985 0 9 120 120 0 9.30000 147.800 3 48 985 9.30000 147.900 STS 50 980 7 297
1991124N05152 1991 22 WP MM WALT 1991-05-08 09:00:00 TS 9.54808 147.505 main 1299 1299 PPPP__________ WP041991 9.74995 147.407 52 0 9.54995 147.477 4 52 982 0 9 150 150 9.39245 147.535 3 48 985 9.49997 147.600 STS 52 977 6 298
1991124N05152 1991 22 WP MM WALT 1991-05-08 12:00:00 TS 9.70000 147.225 55 980 tokyo main 1322 1322 OOOO__________ jtwc_wp WP041991 9.90000 147.100 55 0 9.70000 147.200 4 55 980 9 30 30 9 180 180 0 9.50000 147.300 3 48 985 9.70000 147.300 STS 55 975 6 300
1991124N05152 1991 22 WP MM WALT 1991-05-08 15:00:00 TS 9.86558 146.945 main 1344 1344 PPPP__________ WP041991 10.0500 146.757 57 0 9.83493 146.957 4 57 977 9 35 35 9 190 190 9.66995 147.065 3 53 982 9.90747 147.000 STS 55 975 7 302
1991124N05152 1991 22 WP MM WALT 1991-05-08 18:00:00 TS 10.0500 146.650 60 975 tokyo main 1367 1367 OOOO__________ jtwc_wp WP041991 10.2000 146.400 60 0 10.0000 146.700 4 60 975 9 40 40 9 200 200 0 9.90000 146.800 3 58 980 10.1000 146.700 STS 55 975 7 303
1991124N05152 1991 22 WP MM WALT 1991-05-08 21:00:00 TS 10.2549 146.335 main 1389 1389 PPPP__________ WP041991 10.3500 146.050 65 1 10.2350 146.380 4 62 972 9 55 55 9 220 220 10.1925 146.480 3 63 975 10.2424 146.430 STS 60 970 8 303
1991124N05152 1991 22 WP MM WALT 1991-05-09 00:00:00 TS 10.4750 145.975 65 970 tokyo main 1413 1413 OOOO__________ jtwc_wp WP041991 10.5000 145.700 70 1 10.5000 146.000 5 65 970 9 70 70 9 240 240 0 10.5000 146.100 4 68 970 10.4000 146.100 T 65 965 9 301
1991124N05152 1991 22 WP MM WALT 1991-05-09 03:00:00 TS 10.7112 145.558 main 1438 1438 PPPP__________ WP041991 10.6499 145.365 80 1 10.7650 145.565 5 70 965 9 80 80 9 240 240 10.7800 145.673 4 72 965 10.6500 145.630 T 70 960 10 298
1991124N05152 1991 22 WP MM WALT 1991-05-09 06:00:00 TS 10.9250 145.100 75 960 tokyo main 1466 1466 OOOO__________ jtwc_wp WP041991 10.8000 145.000 90 2 11.0000 145.100 5 75 960 9 90 90 9 240 240 0 11.0000 145.200 4 77 960 10.9000 145.100 T 75 955 10 292
1991124N05152 1991 22 WP MM WALT 1991-05-09 09:00:00 TS 11.0737 144.634 main 1495 1495 PPPP__________ WP041991 10.9425 144.572 95 2 11.1649 144.657 5 77 955 9 100 100 9 240 240 11.1225 144.707 4 77 957 11.0649 144.600 T 75 955 10 286
1991124N05152 1991 22 WP MM WALT 1991-05-09 12:00:00 TS 11.2000 144.150 80 950 tokyo main 1513 1515 OOOO__________ jtwc_wp WP041991 11.1000 144.100 100 3 11.3000 144.200 5 80 950 9 110 110 9 240 240 0 11.2000 144.200 4 77 955 11.2000 144.100 T 75 955 10 286
1991124N05152 1991 22 WP MM WALT 1991-05-09 15:00:00 TS 11.3480 143.661 main 1535 1535 PPPP__________ WP041991 11.2999 143.615 102 3 11.4499 143.715 5 80 947 9 110 110 9 240 240 11.2924 143.707 4 77 952 11.3499 143.607 T 75 955 10 287
1991124N05152 1991 22 WP MM WALT 1991-05-09 18:00:00 TS 11.5000 143.150 80 945 tokyo main 1568 1557 OOOO__________ jtwc_wp WP041991 11.5000 143.100 105 3 11.6000 143.200 5 80 945 9 110 110 9 240 240 0 11.4000 143.200 4 77 950 11.5000 143.100 T 75 955 11 286
1991124N05152 1991 22 WP MM WALT 1991-05-09 21:00:00 TS 11.6518 142.611 main 1567 1557 PPPP__________ WP041991 11.6574 142.557 107 3 11.7574 142.665 5 85 940 9 110 110 9 240 240 11.5349 142.665 4 82 945 11.6574 142.558 T 80 950 11 286
1991124N05152 1991 22 WP MM WALT 1991-05-10 00:00:00 TS 11.8000 142.050 90 935 tokyo main 1562 1551 OOOO__________ jtwc_wp WP041991 11.8000 142.000 110 3 11.9000 142.100 5 90 935 9 110 110 9 240 240 0 11.7000 142.100 5 87 940 11.8000 142.000 ST 85 945 11 285
1991124N05152 1991 22 WP MM WALT 1991-05-10 03:00:00 TS 11.9374 141.484 main 1551 1540 PPPP__________ WP041991 11.9498 141.457 112 3 11.9999 141.507 5 92 930 9 115 115 9 240 240 11.8999 141.508 5 92 937 11.8998 141.465 ST 87 942 12 284
1991124N05152 1991 22 WP MM WALT 1991-05-10 06:00:00 TS 12.0750 140.900 95 925 tokyo main 1547 1535 OOOO__________ jtwc_wp WP041991 12.1000 140.900 115 4 12.1000 140.900 5 95 925 9 120 120 9 240 240 0 12.1000 140.900 5 97 935 12.0000 140.900 ST 90 940 12 284
1991124N05152 1991 22 WP MM WALT 1991-05-10 09:00:00 TS 12.2230 140.297 main 1535 1518 PPPP__________ WP041991 12.2499 140.307 115 4 12.2498 140.308 5 95 925 9 120 120 9 240 240 12.2498 140.307 5 97 935 12.1424 140.265 ST 85 945 12 284
1991124N05152 1991 22 WP MM WALT 1991-05-10 12:00:00 TS 12.3750 139.675 95 925 tokyo main 1518 1457 OOOO__________ jtwc_wp WP041991 12.4000 139.700 115 4 12.4000 139.700 5 95 925 9 120 120 9 240 240 0 12.4000 139.700 5 97 935 12.3000 139.600 T 80 950 13 284
1991124N05152 1991 22 WP MM WALT 1991-05-10 15:00:00 TS 12.5248 139.049 main 1446 1385 PPPP__________ WP041991 12.5498 139.115 115 4 12.4998 139.065 5 95 925 9 120 120 9 240 240 12.6073 139.065 5 97 935 12.4423 138.950 T 80 950 13 284
1991124N05152 1991 22 WP MM WALT 1991-05-10 18:00:00 TS 12.6750 138.400 95 925 tokyo main 1385 1321 OOOO__________ jtwc_wp WP041991 12.7000 138.500 115 4 12.6000 138.400 5 95 925 9 120 120 9 240 240 0 12.8000 138.400 5 97 935 12.6000 138.300 T 80 950 13 283
1991124N05152 1991 22 WP MM WALT 1991-05-10 21:00:00 TS 12.8211 137.726 main 1311 1248 PPPP__________ WP041991 12.8499 137.822 115 4 12.7349 137.707 5 95 925 9 120 120 9 240 240 12.8999 137.707 5 97 937 12.7997 137.665 T 82 947 14 283
1991124N05152 1991 22 WP MM WALT 1991-05-11 00:00:00 TS 12.9750 137.025 95 925 tokyo main 1239 1166 OOOO__________ jtwc_wp WP041991 13.0000 137.100 115 4 12.9000 137.000 5 95 925 9 120 120 9 240 240 0 13.0000 137.000 5 97 940 13.0000 137.000 ST 85 945 14 283
1991124N05152 1991 22 WP MM WALT 1991-05-11 03:00:00 TS 13.1461 136.307 main 1166 1096 PPPP__________ WP041991 13.1423 136.357 117 4 13.0923 136.307 5 95 925 9 120 120 9 240 240 13.1922 136.308 5 97 940 13.1575 136.257 ST 90 940 15 284
1991124N05152 1991 22 WP MM WALT 1991-05-11 06:00:00 TS 13.3250 135.575 95 925 tokyo main 1096 1028 OOOO__________ jtwc_wp WP041991 13.3000 135.600 120 4 13.3000 135.600 5 95 925 9 120 120 9 240 240 0 13.4000 135.600 5 97 940 13.3000 135.500 ST 95 935 15 284
1991124N05152 1991 22 WP MM WALT 1991-05-11 09:00:00 TS 13.4999 134.826 main 1017 947 PPPP__________ WP041991 13.4924 134.835 122 4 13.5075 134.843 5 95 925 9 120 120 9 240 240 13.5575 134.842 5 97 940 13.4423 134.785 ST 100 930 15 284
1991124N05152 1991 22 WP MM WALT 1991-05-11 12:00:00 TS 13.6750 134.100 95 925 tokyo main 947 885 OOOO__________ jtwc_wp WP041991 13.7000 134.100 125 4 13.7000 134.100 5 95 925 9 120 120 9 240 240 0 13.7000 134.100 5 97 940 13.6000 134.100 SuperT 105 925 14 284
1991124N05152 1991 22 WP MM WALT 1991-05-11 15:00:00 TS 13.8479 133.429 main 874 816 PPPP__________ WP041991 13.9073 133.427 127 4 13.8498 133.427 5 95 925 9 120 120 9 245 245 13.8423 133.427 5 97 940 13.7923 133.435 SuperT 107 922 13 285
1991124N05152 1991 22 WP MM WALT 1991-05-11 18:00:00 TS 14.0250 132.800 95 925 tokyo main 816 759 OOOO__________ jtwc_wp WP041991 14.1000 132.800 130 4 14.0000 132.800 5 95 925 9 120 120 9 250 250 0 14.0000 132.800 5 97 940 14.0000 132.800 SuperT 110 920 13 287
1991124N05152 1991 22 WP MM WALT 1991-05-11 21:00:00 TS 14.2086 132.177 main 759 704 PPPP__________ WP041991 14.2499 132.177 132 4 14.1924 132.177 5 97 922 9 120 120 9 250 250 14.1924 132.177 5 101 937 14.1999 132.177 SuperT 110 920 12 288
1991124N05152 1991 22 WP MM WALT 1991-05-12 00:00:00 TS 14.4000 131.600 100 920 tokyo main 704 662 OOOO__________ jtwc_wp WP041991 14.4000 131.600 135 4 14.4000 131.600 5 100 920 9 120 120 9 250 250 0 14.4000 131.600 6 106 935 14.4000 131.600 SuperT 110 920 11 290
1991124N05152 1991 22 WP MM WALT 1991-05-12 03:00:00 TS 14.5960 131.085 main 662 623 PPPP__________ WP041991 14.5923 131.085 137 5 14.5998 131.085 5 100 917 9 120 120 9 250 250 14.5923 131.085 6 111 930 14.5998 131.085 SuperT 107 922 10 292
1991124N05152 1991 22 WP MM WALT 1991-05-12 06:00:00 TS 14.8000 130.600 100 915 tokyo main 623 587 OOOO__________ jtwc_wp WP041991 14.8000 130.600 140 5 14.8000 130.600 5 100 915 9 120 120 9 250 250 0 14.8000 130.600 6 116 925 14.8000 130.600 SuperT 105 925 10 294
1991124N05152 1991 22 WP MM WALT 1991-05-12 09:00:00 TS 15.0105 130.106 main 587 556 PPPP__________ WP041991 14.9999 130.100 140 5 14.9998 130.107 5 100 915 9 120 120 9 250 250 15.0498 130.107 6 116 922 14.9923 130.107 SuperT 102 927 11 294
1991124N05152 1991 22 WP MM WALT 1991-05-12 12:00:00 TS 15.2250 129.600 100 915 tokyo main 556 528 OOOO__________ jtwc_wp WP041991 15.2000 129.600 140 5 15.2000 129.600 5 100 915 9 120 120 9 250 250 0 15.3000 129.600 6 116 920 15.2000 129.600 SuperT 100 930 11 293
1991124N05152 1991 22 WP MM WALT 1991-05-12 15:00:00 TS 15.4470 129.042 main 520 490 PPPP__________ WP041991 15.4000 129.085 137 5 15.4076 129.028 5 100 915 9 120 120 9 250 250 15.5226 129.028 6 116 920 15.4576 129.028 SuperT 100 930 11 292
1991124N05152 1991 22 WP MM WALT 1991-05-12 18:00:00 TS 15.6500 128.525 100 915 tokyo main 484 460 OOOO__________ jtwc_wp WP041991 15.6000 128.600 135 4 15.6000 128.500 5 100 915 9 120 120 9 250 250 0 15.7000 128.500 6 116 920 15.7000 128.500 SuperT 100 930 9 292
1991124N05152 1991 22 WP MM WALT 1991-05-12 21:00:00 TS 15.8054 128.134 main 451 428 PPPP__________ WP041991 15.8074 128.177 132 4 15.7498 128.120 5 100 915 9 120 120 9 250 250 15.7998 128.120 6 116 920 15.8648 128.120 SuperT 100 930 8 293
1991124N05152 1991 22 WP MM WALT 1991-05-13 00:00:00 TS 15.9500 127.800 100 915 tokyo main 434 414 OOOO__________ jtwc_wp WP041991 16.0000 127.800 130 4 15.9000 127.800 5 100 915 9 120 120 9 250 250 0 15.9000 127.800 6 116 920 16.0000 127.800 SuperT 100 930 7 295
1991124N05152 1991 22 WP MM WALT 1991-05-13 03:00:00 TS 16.1174 127.448 main 405 395 PPPP__________ WP041991 16.1499 127.435 127 4 16.0924 127.450 5 100 915 9 120 120 9 250 250 16.0849 127.450 6 116 920 16.1424 127.457 SuperT 100 930 8 298
1991124N05152 1991 22 WP MM WALT 1991-05-13 06:00:00 TS 16.3000 127.100 100 915 tokyo main 395 379 OOOO__________ jtwc_wp WP041991 16.3000 127.100 125 4 16.3000 127.100 5 100 915 9 120 120 9 250 250 0 16.3000 127.100 6 116 920 16.3000 127.100 SuperT 100 930 8 299
1991124N05152 1991 22 WP MM WALT 1991-05-13 09:00:00 TS 16.4906 126.741 main 380 373 PPPP__________ WP041991 16.4924 126.792 125 4 16.4925 126.742 5 100 917 9 120 120 9 255 255 16.4925 126.742 6 116 920 16.4851 126.685 SuperT 100 930 8 301
1991124N05152 1991 22 WP MM WALT 1991-05-13 12:00:00 TS 16.7000 126.400 100 920 tokyo main 376 370 OOOO__________ jtwc_wp WP041991 16.7000 126.500 125 4 16.7000 126.400 5 100 920 9 120 120 9 260 260 0 16.7000 126.400 6 116 920 16.7000 126.300 SuperT 100 930 8 305
1991124N05152 1991 22 WP MM WALT 1991-05-13 15:00:00 TS 16.9300 126.094 main 377 351 PPPP__________ WP041991 16.8925 126.192 122 4 16.9425 126.085 5 97 922 9 120 120 9 260 260 16.9425 126.077 6 116 920 16.9424 126.020 SuperT 97 932 7 311
1991124N05152 1991 22 WP MM WALT 1991-05-13 18:00:00 TS 17.1750 125.825 95 925 tokyo main 351 332 OOOO__________ jtwc_wp WP041991 17.1000 125.900 120 4 17.2000 125.800 5 95 925 9 120 120 9 260 260 0 17.2000 125.800 6 116 920 17.2000 125.800 ST 95 935 7 315
1991124N05152 1991 22 WP MM WALT 1991-05-13 21:00:00 TS 17.4193 125.583 main 332 315 PPPP__________ WP041991 17.3350 125.627 117 4 17.4500 125.527 5 92 930 9 110 110 9 260 260 17.4499 125.585 6 111 925 17.4425 125.592 ST 92 937 7 319
1991124N05152 1991 22 WP MM WALT 1991-05-14 00:00:00 TS 17.6750 125.375 90 935 tokyo main 317 300 OOOO__________ jtwc_wp WP041991 17.6000 125.400 115 4 17.7000 125.300 5 90 935 9 100 100 9 260 260 0 17.7000 125.400 6 106 930 17.7000 125.400 ST 90 940 6 323
1991124N05152 1991 22 WP MM WALT 1991-05-14 03:00:00 TS 17.9294 125.181 main 303 285 PPPP__________ WP041991 17.8774 125.235 112 3 17.9275 125.127 5 90 935 9 100 100 9 260 260 17.9275 125.178 6 101 935 17.9850 125.185 ST 90 940 6 329
1991124N05152 1991 22 WP MM WALT 1991-05-14 06:00:00 TS 18.2250 125.025 90 935 tokyo main 285 274 OOOO__________ jtwc_wp WP041991 18.2000 125.100 110 3 18.2000 125.000 5 90 935 9 100 100 9 260 260 0 18.2000 125.000 5 97 940 18.3000 125.000 ST 90 940 7 339
1991124N05152 1991 22 WP MM WALT 1991-05-14 09:00:00 TS 18.6012 124.910 main 275 269 PPPP__________ WP041991 18.5925 124.935 107 3 18.5850 124.892 5 87 937 9 100 100 9 260 260 18.5850 124.927 5 92 945 18.6425 124.885 ST 87 942 8 346
1991124N05152 1991 22 WP MM WALT 1991-05-14 12:00:00 TS 19.0000 124.825 85 940 tokyo main 271 271 OOOO__________ jtwc_wp WP041991 19.0000 124.800 105 3 19.0000 124.800 5 85 940 9 100 100 9 260 260 0 19.0000 124.900 5 87 950 19.0000 124.800 ST 85 945 8 348
1991124N05152 1991 22 WP MM WALT 1991-05-14 15:00:00 TS 19.3500 124.737 main 276 271 PPPP__________ WP041991 19.3575 124.727 102 3 19.3500 124.685 5 82 945 9 100 100 9 260 260 19.3500 124.857 5 87 950 19.3425 124.678 ST 85 945 7 348
1991124N05152 1991 22 WP MM WALT 1991-05-14 18:00:00 TS 19.7000 124.675 80 950 tokyo main 291 291 OOOO__________ jtwc_wp WP041991 19.7000 124.700 100 3 19.7000 124.600 5 80 950 9 100 100 9 260 260 0 19.7000 124.800 5 87 950 19.7000 124.600 ST 85 945 7 352
1991124N05152 1991 22 WP MM WALT 1991-05-14 21:00:00 TS 20.0819 124.625 main 307 307 PPPP__________ WP041991 20.0425 124.663 97 3 20.0925 124.563 5 80 950 9 100 100 9 260 260 20.0925 124.670 5 82 955 20.1000 124.605 ST 82 947 8 358
1991124N05152 1991 22 WP MM WALT 1991-05-15 00:00:00 TS 20.4750 124.650 80 950 tokyo main 344 344 OOOO__________ jtwc_wp WP041991 20.4000 124.700 95 2 20.5000 124.600 5 80 950 9 100 100 9 260 260 0 20.5000 124.600 4 77 960 20.5000 124.700 T 80 950 8 9
1991124N05152 1991 22 WP MM WALT 1991-05-15 03:00:00 TS 20.8474 124.757 main 375 375 PPPP__________ WP041991 20.7774 124.840 95 2 20.8999 124.679 5 80 952 9 95 95 9 240 240 20.8847 124.653 4 77 960 20.8274 124.855 T 77 952 8 23
1991124N05152 1991 22 WP MM WALT 1991-05-15 06:00:00 TS 21.2500 125.000 80 955 tokyo main 421 421 OOOO__________ jtwc_wp WP041991 21.2000 125.100 95 2 21.3000 124.900 5 80 955 9 90 90 9 220 220 0 21.3000 124.900 4 77 960 21.2000 125.100 T 75 955 11 34
1991124N05152 1991 22 WP MM WALT 1991-05-15 09:00:00 TS 21.7207 125.389 75 960 tokyo main 439 435 POPP__________ WP041991 21.6774 125.448 92 2 21.7000 125.300 5 75 960 9 80 80 9 200 200 0 21.7854 125.405 4 72 962 21.7199 125.405 T 72 957 13 40
1991124N05152 1991 22 WP MM WALT 1991-05-15 12:00:00 TS 22.2750 125.925 75 960 tokyo main 470 470 OOOO__________ jtwc_wp WP041991 22.2000 125.900 90 2 22.3000 126.000 5 75 960 9 80 80 9 200 200 0 22.3000 126.000 4 68 965 22.3000 125.800 T 70 960 15 40
1991124N05152 1991 22 WP MM WALT 1991-05-15 15:00:00 TS 22.8303 126.392 70 965 tokyo main 495 491 POPP__________ WP041991 22.7496 126.390 85 2 22.9000 126.500 5 70 965 9 70 70 2 200 150 0 22.7994 126.428 4 68 967 22.8722 126.248 T 67 962 14 40
1991124N05152 1991 22 WP MM WALT 1991-05-15 18:00:00 TS 23.3500 126.900 70 965 tokyo main 522 522 OOOO__________ jtwc_wp WP041991 23.3000 127.000 80 1 23.4000 126.900 5 70 965 9 50 50 2 200 150 0 23.3000 126.900 4 68 970 23.4000 126.800 T 65 965 14 46
1991124N05152 1991 22 WP MM WALT 1991-05-15 21:00:00 TS 23.8280 127.501 65 970 tokyo main 572 569 POPP__________ WP041991 23.8067 127.711 77 1 23.9000 127.400 5 65 970 9 40 40 2 200 150 0 23.8066 127.503 4 63 975 23.7986 127.389 T 62 967 16 55
1991124N05152 1991 22 WP MM WALT 1991-05-16 00:00:00 TS 24.2750 128.350 60 975 tokyo main 651 651 OOOO__________ jtwc_wp WP041991 24.3000 128.600 75 1 24.3000 128.300 4 60 975 9 40 40 2 200 150 0 24.3000 128.300 3 58 980 24.2000 128.200 STS 60 970 19 62
1991124N05152 1991 22 WP MM WALT 1991-05-16 03:00:00 TS 24.7267 129.358 60 975 tokyo main 714 647 POPP__________ WP041991 24.7768 129.662 72 1 24.7000 129.200 4 60 975 9 40 40 2 200 150 0 24.7330 129.252 3 58 980 24.6968 129.317 STS 55 975 23 65
1991124N05152 1991 22 WP MM WALT 1991-05-16 06:00:00 TS 25.2200 130.607 60 975 tokyo main 647 592 OOOO__________ jtwc_wp WP041991 25.3000 130.900 70 1 25.1000 130.400 4 60 975 9 40 40 2 220 170 0 25.2000 130.500 3 58 980 25.3000 130.700 STS 50 980 27 66
1991124N05152 1991 22 WP MM WALT 1991-05-16 09:00:00 TS 25.8457 132.085 60 980 tokyo main 596 578 POPP__________ WP041991 25.9229 132.263 65 1 25.7000 131.800 4 60 980 9 30 30 9 230 230 0 25.7639 132.125 3 53 982 26.0346 132.240 STS 47 982 32 66
1991124N05152 1991 22 WP MM WALT 1991-05-16 12:00:00 TS 26.5385 133.885 50 985 tokyo main 591 586 OOOO__________ jtwc_wp WP041991 26.6000 133.700 60 0 26.4000 133.900 4 50 985 0 9 230 230 0 26.4000 133.900 3 48 985 26.8000 133.900 TS 45 985 34 66
1991124N05152 1991 22 WP MM WALT 1991-05-16 15:00:00 TS 27.2204 135.575 50 985 tokyo main 620 618 _OPP__________ WP041991 -1 27.2000 135.900 4 50 985 0 3 220 140 0 27.0474 135.387 3 48 985 27.4139 135.438 TS 45 985 32 66
1991124N05152 1991 22 WP MM WALT 1991-05-16 18:00:00 TS 27.8818 137.200 50 985 tokyo main 628 606 _OOO__________ -1 27.8000 137.300 4 50 985 0 3 220 140 0 27.8000 137.100 3 48 985 28.1000 137.200 TS 45 985 37 65
1991124N05152 1991 22 WP MM WALT 1991-05-16 21:00:00 TS 28.7839 139.328 50 985 tokyo main 611 596 _OPP__________ -1 28.8000 139.200 4 50 985 0 3 220 140 0 28.6608 139.401 3 43 987 28.9981 139.438 TS 45 985 46 65
1991124N05152 1991 22 WP MM WALT 1991-05-17 00:00:00 TS 29.8222 141.956 50 985 tokyo main 601 589 _OOO__________ -1 30.0000 141.800 4 50 985 0 4 250 100 0 29.6000 142.100 2 38 990 30.0000 142.000 TS 45 985 55 64
1991124N05152 1991 22 WP MM WALT 1991-05-17 03:00:00 MX 31.1567 145.036 990 tokyo main 617 617 _OP___________ -1 32.0000 145.000 6 990 0 0 0 30.3134 145.072 2 38 990 TS 53 62
1991124N05152 1991 22 WP MM WALT 1991-05-17 06:00:00 MX 32.3571 147.429 992 tokyo main 701 701 _OO___________ -1 33.0000 147.000 6 992 0 0 0 31.5000 148.000 2 38 990 50 54
1991124N05152 1991 22 WP MM WALT 1991-05-17 09:00:00 MX 34.1213 149.834 main 828 828 _PP___________ -1 34.3342 149.467 6 992 0 0 33.6955 150.568 2 33 992 54 47
1991124N05152 1991 22 WP MM WALT 1991-05-17 12:00:00 MX 36.1000 152.200 992 tokyo main 961 948 _OO___________ -1 36.0000 152.000 6 992 0 0 0 36.5000 153.000 1 29 995 52 44
1991124N05152 1991 22 WP MM WALT 1991-05-17 15:00:00 ET 37.8490 154.225 main 943 809 _P____________ -1 37.8490 154.225 6 991 0 0 1 49 38
1991124N05152 1991 22 WP MM WALT 1991-05-17 18:00:00 ET 40.0000 156.000 990 tokyo main 805 664 _O____________ -1 40.0000 156.000 6 990 0 0 0 54 26
1991124N05152 1991 22 WP MM WALT 1991-05-17 21:00:00 ET 42.7198 157.296 main 663 598 _P____________ -1 42.7198 157.296 6 987 0 0 52 16
1991124N05152 1991 22 WP MM WALT 1991-05-18 00:00:00 ET 45.0000 158.000 984 tokyo main 588 500 _O____________ -1 45.0000 158.000 6 984 0 0 0 33 11
1991124N05152 1991 22 WP MM WALT 1991-05-18 03:00:00 ET 45.9261 158.156 main 500 484 _P____________ -1 45.9261 158.156 6 984 0 0 10 1
1991124N05152 1991 22 WP MM WALT 1991-05-18 06:00:00 ET 46.0000 158.000 984 tokyo main 484 _O____________ -1 46.0000 158.000 6 984 0 0 0 3 304

デジタル台風データ・検索

IBTrACS Databaseについて

本データベースは、米国NOAAが公開する1842年以降の世界の熱帯低気圧のベストトラックデータアーカイブInternational Best Track Archive for Climate Stewardship (IBTrACS)を、ウェブで閲覧しやすい形式に変換したものです。

最終更新日:2021-12-03